Time;durP1;ratioP1;P1;durP2;ratioP2;P2;SDS_P1;SDS_P2;PMS_P1;PMS_P2;Temp;Humidity;BMP_temperature;BMP_pressure;BME280_temperature;BME280_humidity;BME280_pressure;Samples;Min_cycle;Max_cycle;Signal;HPM_P1;HPM_P2
2023/02/07 00:01:58;;;;;;;;;;;2.30;90.90;;;;;;4994971;28;20400;-79
2023/02/07 00:04:23;;;;;;;;;;;2.30;91.00;;;;;;5004243;28;19917;-79
2023/02/07 00:06:49;;;;;;;;;;;2.30;91.00;;;;;;4994897;28;20424;-78
2023/02/07 00:09:16;;;;;;;;;;;2.30;91.00;;;;;;4989606;28;19913;-77
2023/02/07 00:11:42;;;;;;;;;;;2.30;91.00;;;;;;4991037;28;19913;-78
2023/02/07 00:14:08;;;;;;;;;;;2.30;90.90;;;;;;4994477;28;19920;-78
2023/02/07 00:16:34;;;;;;;;;;;2.30;90.90;;;;;;4999849;28;20606;-77
2023/02/07 00:18:59;;;;;;;;;;;2.40;90.80;;;;;;4992996;28;20012;-78
2023/02/07 00:21:25;;;;;;;;;;;2.40;90.70;;;;;;4988407;28;19913;-78
2023/02/07 00:23:51;;;;;;;;;;;2.40;90.60;;;;;;4994317;28;19924;-78
2023/02/07 00:26:18;;;;;;;;;;;2.50;90.70;;;;;;4993988;28;19959;-78
2023/02/07 00:28:43;;;;;;;;;;;2.50;90.70;;;;;;4993956;28;20419;-78
2023/02/07 00:31:10;;;;;;;;;;;2.60;90.70;;;;;;4996186;28;19917;-78
2023/02/07 00:33:37;;;;;;;;;;;2.80;90.40;;;;;;4993214;28;20004;-79
2023/02/07 00:36:04;;;;;;;;;;;2.80;90.20;;;;;;4981346;28;20605;-77
2023/02/07 00:38:29;;;;;;;;;;;2.90;89.90;;;;;;4995889;28;19914;-80
2023/02/07 00:40:55;;;;;;;;;;;2.90;89.70;;;;;;4993468;28;19960;-77
2023/02/07 00:43:21;;;;;;;;;;;2.90;90.10;;;;;;4989088;28;19913;-80
2023/02/07 00:45:46;;;;;;;;;;;2.90;90.00;;;;;;4994874;28;19913;-79
2023/02/07 00:48:12;;;;;;;;;;;2.90;90.10;;;;;;5001088;28;19928;-79
2023/02/07 00:50:38;;;;;;;;;;;2.80;90.30;;;;;;4989024;28;19954;-79
2023/02/07 00:53:03;;;;;;;;;;;2.80;90.00;;;;;;4989141;28;19957;-79
2023/02/07 00:55:29;;;;;;;;;;;2.80;90.00;;;;;;4985793;28;19921;-79
2023/02/07 00:57:55;;;;;;;;;;;2.80;90.00;;;;;;4994878;28;19916;-78
2023/02/07 01:00:21;;;;;;;;;;;2.80;90.00;;;;;;4995322;28;19972;-79
2023/02/07 01:02:47;;;;;;;;;;;2.80;90.20;;;;;;5002084;28;20023;-79
2023/02/07 01:05:12;;;;;;;;;;;2.80;90.20;;;;;;4995855;28;20727;-78
2023/02/07 01:07:38;;;;;;;;;;;2.80;90.10;;;;;;4990088;28;19921;-78
2023/02/07 01:10:04;;;;;;;;;;;2.80;90.10;;;;;;4986462;28;20234;-79
2023/02/07 01:12:29;;;;;;;;;;;2.70;90.10;;;;;;4985933;28;19914;-78
2023/02/07 01:14:55;;;;;;;;;;;2.60;90.30;;;;;;4995628;28;19960;-78
2023/02/07 01:17:20;;;;;;;;;;;2.50;90.40;;;;;;4996469;28;19949;-79
2023/02/07 01:19:46;;;;;;;;;;;2.50;90.40;;;;;;4991322;28;19918;-79
2023/02/07 01:22:12;;;;;;;;;;;2.40;90.50;;;;;;4985884;28;19924;-78
2023/02/07 01:24:37;;;;;;;;;;;2.50;90.40;;;;;;4996001;28;20017;-78
2023/02/07 01:27:03;;;;;;;;;;;2.60;90.40;;;;;;4996643;28;19913;-78
2023/02/07 01:29:28;;;;;;;;;;;2.60;90.30;;;;;;4996491;28;20581;-79
2023/02/07 01:31:54;;;;;;;;;;;2.50;90.40;;;;;;4992110;28;19944;-78
2023/02/07 01:34:19;;;;;;;;;;;2.50;90.50;;;;;;4981284;28;20446;-77
2023/02/07 01:36:45;;;;;;;;;;;2.40;90.70;;;;;;4994971;28;19914;-78
2023/02/07 01:39:11;;;;;;;;;;;2.30;90.90;;;;;;4996309;28;19917;-81
2023/02/07 01:41:36;;;;;;;;;;;2.20;91.10;;;;;;4999706;28;19913;-79
2023/02/07 01:44:20;;;;;;;;;;;2.30;91.10;;;;;;4996606;28;20399;-79
2023/02/07 01:46:47;;;;;;;;;;;2.30;90.90;;;;;;4995654;28;19991;-79
2023/02/07 01:49:14;;;;;;;;;;;2.30;90.90;;;;;;4984158;28;20337;-78
2023/02/07 01:51:44;;;;;;;;;;;2.30;90.80;;;;;;4997380;28;19916;-79
2023/02/07 01:54:10;;;;;;;;;;;2.50;90.70;;;;;;4986075;28;19909;-79
2023/02/07 01:56:40;;;;;;;;;;;2.40;90.80;;;;;;4994140;28;19917;-78
2023/02/07 01:59:05;;;;;;;;;;;2.40;90.80;;;;;;4984157;28;20419;-78
2023/02/07 02:01:31;;;;;;;;;;;2.30;91.00;;;;;;4991065;28;20001;-78
2023/02/07 02:03:57;;;;;;;;;;;2.40;90.80;;;;;;4999953;28;19914;-78
2023/02/07 02:06:24;;;;;;;;;;;2.40;90.70;;;;;;4991567;28;19914;-79
2023/02/07 02:08:51;;;;;;;;;;;2.40;90.80;;;;;;4984315;28;20407;-79
2023/02/07 02:11:35;;;;;;;;;;;2.40;90.80;;;;;;4988411;28;19916;-78
2023/02/07 02:14:01;;;;;;;;;;;2.50;90.80;;;;;;4988223;28;19952;-80
2023/02/07 02:16:39;;;;;;;;;;;2.50;90.60;;;;;;4986701;28;19960;-79
2023/02/07 02:19:31;;;;;;;;;;;2.60;90.50;;;;;;4981913;28;20016;-79
2023/02/07 02:22:15;;;;;;;;;;;2.60;90.70;;;;;;4990463;28;19919;-78
2023/02/07 02:24:59;;;;;;;;;;;2.60;90.50;;;;;;4989939;28;20056;-81
2023/02/07 02:27:43;;;;;;;;;;;2.60;90.30;;;;;;4993877;28;19933;-80
2023/02/07 02:30:27;;;;;;;;;;;2.60;90.60;;;;;;4988381;28;19984;-81
2023/02/07 02:33:02;;;;;;;;;;;2.50;90.50;;;;;;4993285;28;19916;-79
2023/02/07 02:35:28;;;;;;;;;;;2.40;90.90;;;;;;4988732;28;20373;-80
2023/02/07 02:38:20;;;;;;;;;;;2.30;91.40;;;;;;4989397;28;19917;-80
2023/02/07 02:40:57;;;;;;;;;;;2.40;91.10;;;;;;4984835;28;19981;-81
2023/02/07 02:43:27;;;;;;;;;;;2.40;91.10;;;;;;4996844;28;19913;-80
2023/02/07 02:45:57;;;;;;;;;;;2.10;91.70;;;;;;4993191;28;20385;-78
2023/02/07 02:48:23;;;;;;;;;;;2.10;91.90;;;;;;4981208;28;20332;-79
2023/02/07 02:50:50;;;;;;;;;;;2.30;91.20;;;;;;4987079;28;19920;-79
2023/02/07 02:53:15;;;;;;;;;;;2.30;91.20;;;;;;4996715;28;19910;-79
2023/02/07 02:55:44;;;;;;;;;;;2.50;90.50;;;;;;4983872;28;20297;-80
2023/02/07 02:58:24;;;;;;;;;;;2.50;90.50;;;;;;4983242;28;19993;-78
2023/02/07 03:00:57;;;;;;;;;;;2.50;90.50;;;;;;5001839;28;19963;-81
2023/02/07 03:03:31;;;;;;;;;;;2.50;90.40;;;;;;4984100;28;19913;-79
2023/02/07 03:06:12;;;;;;;;;;;2.50;90.40;;;;;;4989575;28;19920;-78
2023/02/07 03:08:53;;;;;;;;;;;2.40;90.40;;;;;;4994359;28;20003;-80
2023/02/07 03:11:20;;;;;;;;;;;2.30;90.80;;;;;;4997594;28;20060;-78
2023/02/07 03:13:46;;;;;;;;;;;2.20;91.00;;;;;;4998351;28;19924;-78
2023/02/07 03:16:22;;;;;;;;;;;2.10;91.20;;;;;;4992064;28;19905;-78
2023/02/07 03:18:56;;;;;;;;;;;2.00;91.60;;;;;;5001360;28;19921;-79
2023/02/07 03:21:27;;;;;;;;;;;1.80;91.80;;;;;;5002519;28;19913;-78
2023/02/07 03:23:55;;;;;;;;;;;1.90;91.70;;;;;;4984327;28;19928;-78
2023/02/07 03:26:22;;;;;;;;;;;1.80;92.00;;;;;;4986493;28;19982;-79
2023/02/07 03:28:48;;;;;;;;;;;1.70;92.10;;;;;;4984171;28;19961;-78
2023/02/07 03:31:16;;;;;;;;;;;1.50;92.40;;;;;;4985451;28;19922;-78
2023/02/07 03:33:42;;;;;;;;;;;1.40;92.80;;;;;;4997200;28;19924;-77
2023/02/07 03:36:12;;;;;;;;;;;1.60;92.20;;;;;;4985556;28;19972;-77
2023/02/07 03:38:38;;;;;;;;;;;1.70;91.80;;;;;;4987139;28;19937;-78
2023/02/07 03:41:10;;;;;;;;;;;1.50;92.40;;;;;;4989229;28;19918;-77
2023/02/07 03:43:37;;;;;;;;;;;1.50;92.20;;;;;;4993023;28;20035;-78
2023/02/07 03:46:03;;;;;;;;;;;1.50;92.00;;;;;;4977301;28;19920;-77
2023/02/07 03:48:28;;;;;;;;;;;1.60;91.70;;;;;;4998685;28;19921;-79
2023/02/07 03:50:54;;;;;;;;;;;1.70;91.50;;;;;;4990827;28;20813;-78
2023/02/07 03:53:19;;;;;;;;;;;1.60;91.40;;;;;;4992238;28;19909;-80
2023/02/07 03:55:45;;;;;;;;;;;1.80;91.00;;;;;;4998362;28;19938;-77
2023/02/07 03:58:10;;;;;;;;;;;1.90;90.70;;;;;;4988622;28;19913;-79
2023/02/07 04:00:36;;;;;;;;;;;1.80;90.80;;;;;;4986676;28;19921;-79
2023/02/07 04:03:02;;;;;;;;;;;1.80;90.70;;;;;;4995610;28;19913;-78
2023/02/07 04:05:28;;;;;;;;;;;1.90;90.40;;;;;;4993421;28;19913;-78
2023/02/07 04:07:54;;;;;;;;;;;1.90;90.40;;;;;;4994785;28;19985;-79
2023/02/07 04:10:19;;;;;;;;;;;2.00;90.10;;;;;;4997975;28;20273;-80
2023/02/07 04:12:45;;;;;;;;;;;1.80;90.20;;;;;;4997507;28;19913;-78
2023/02/07 04:15:10;;;;;;;;;;;1.90;90.10;;;;;;4993292;28;20457;-80
2023/02/07 04:17:36;;;;;;;;;;;2.00;89.80;;;;;;4991036;28;19914;-79
2023/02/07 04:20:02;;;;;;;;;;;2.00;89.90;;;;;;4991417;28;20013;-78
2023/02/07 04:22:28;;;;;;;;;;;2.00;89.70;;;;;;4992292;28;19921;-79
2023/02/07 04:24:53;;;;;;;;;;;1.90;90.00;;;;;;4989966;28;19949;-78
2023/02/07 04:27:19;;;;;;;;;;;1.90;90.00;;;;;;4991196;28;20011;-79
2023/02/07 04:29:44;;;;;;;;;;;2.00;89.40;;;;;;5000045;28;20298;-80
2023/02/07 04:32:10;;;;;;;;;;;1.90;89.60;;;;;;4989257;28;19996;-78
2023/02/07 04:34:35;;;;;;;;;;;1.90;89.60;;;;;;4993373;28;19910;-80
2023/02/07 04:37:01;;;;;;;;;;;1.90;89.50;;;;;;4993773;28;20383;-80
2023/02/07 04:39:27;;;;;;;;;;;2.10;88.90;;;;;;4995565;28;19909;-78
2023/02/07 04:41:53;;;;;;;;;;;2.00;88.90;;;;;;4993927;28;19917;-78
2023/02/07 04:44:18;;;;;;;;;;;2.00;89.10;;;;;;4992659;28;19936;-78
2023/02/07 04:46:44;;;;;;;;;;;2.00;89.00;;;;;;4985996;28;19925;-79
2023/02/07 04:49:09;;;;;;;;;;;1.90;89.30;;;;;;4993425;28;19920;-79
2023/02/07 04:51:35;;;;;;;;;;;1.80;89.80;;;;;;4983122;28;19914;-79
2023/02/07 04:54:01;;;;;;;;;;;1.60;90.10;;;;;;4993342;28;19929;-79
2023/02/07 04:56:26;;;;;;;;;;;1.60;90.30;;;;;;4991168;28;19918;-79
2023/02/07 04:58:52;;;;;;;;;;;1.50;90.50;;;;;;4993833;28;19944;-78
2023/02/07 05:01:17;;;;;;;;;;;1.50;90.60;;;;;;4991011;28;19918;-79
2023/02/07 05:03:43;;;;;;;;;;;1.60;90.60;;;;;;4991371;28;20057;-78
2023/02/07 05:06:08;;;;;;;;;;;1.50;90.70;;;;;;4988241;28;19920;-78
2023/02/07 05:08:35;;;;;;;;;;;1.50;91.00;;;;;;4997028;28;19929;-82
2023/02/07 05:11:00;;;;;;;;;;;1.50;91.00;;;;;;4986358;28;19959;-80
2023/02/07 05:13:26;;;;;;;;;;;1.60;91.10;;;;;;4990106;28;20041;-80
2023/02/07 05:15:52;;;;;;;;;;;1.60;90.90;;;;;;5000019;28;19914;-81
2023/02/07 05:18:17;;;;;;;;;;;1.50;91.00;;;;;;4993564;28;19921;-80
2023/02/07 05:20:43;;;;;;;;;;;1.40;91.20;;;;;;4991334;28;19914;-80
2023/02/07 05:23:09;;;;;;;;;;;1.20;91.80;;;;;;4988210;28;20017;-80
2023/02/07 05:25:34;;;;;;;;;;;1.00;92.30;;;;;;4991214;28;20012;-82
2023/02/07 05:28:00;;;;;;;;;;;1.00;92.40;;;;;;4989564;28;19969;-82
2023/02/07 05:30:26;;;;;;;;;;;1.00;92.60;;;;;;4991414;28;20775;-81
2023/02/07 05:33:03;;;;;;;;;;;0.90;92.80;;;;;;4988067;28;19913;-80
2023/02/07 05:35:39;;;;;;;;;;;1.10;92.70;;;;;;4986801;28;19921;-80
2023/02/07 05:38:06;;;;;;;;;;;1.20;92.40;;;;;;4989800;28;19949;-80
2023/02/07 05:40:35;;;;;;;;;;;1.30;92.20;;;;;;4999315;28;19913;-80
2023/02/07 05:43:01;;;;;;;;;;;1.30;92.20;;;;;;5003923;28;19909;-79
2023/02/07 05:45:27;;;;;;;;;;;1.20;92.20;;;;;;4994960;28;19913;-81
2023/02/07 05:47:52;;;;;;;;;;;1.10;92.60;;;;;;4994541;28;19967;-83
2023/02/07 05:50:18;;;;;;;;;;;1.20;92.60;;;;;;4992553;28;20556;-82
2023/02/07 05:52:43;;;;;;;;;;;1.20;92.50;;;;;;4995520;28;19918;-82
2023/02/07 05:55:11;;;;;;;;;;;1.30;92.50;;;;;;4999333;28;19913;-81
2023/02/07 05:57:40;;;;;;;;;;;1.10;92.70;;;;;;4995613;28;19990;-82
2023/02/07 06:00:06;;;;;;;;;;;1.20;92.50;;;;;;4995791;28;19956;-79
2023/02/07 06:02:32;;;;;;;;;;;1.30;92.20;;;;;;4999232;28;20492;-78
2023/02/07 06:04:57;;;;;;;;;;;1.10;92.80;;;;;;4995968;28;19905;-78
2023/02/07 06:07:23;;;;;;;;;;;1.10;93.00;;;;;;4990681;28;20282;-78
2023/02/07 06:09:49;;;;;;;;;;;1.30;92.40;;;;;;4990549;28;19944;-77
2023/02/07 06:12:15;;;;;;;;;;;1.30;92.30;;;;;;4992575;28;19925;-77
2023/02/07 06:14:40;;;;;;;;;;;1.30;92.20;;;;;;4998850;28;19953;-81
2023/02/07 06:17:06;;;;;;;;;;;1.20;92.20;;;;;;4993787;28;19909;-77
2023/02/07 06:19:31;;;;;;;;;;;1.40;91.90;;;;;;4995124;28;20011;-79
2023/02/07 06:21:57;;;;;;;;;;;1.40;91.90;;;;;;5002023;28;19996;-80
2023/02/07 06:24:23;;;;;;;;;;;1.20;92.20;;;;;;4991800;28;19917;-79
2023/02/07 06:26:48;;;;;;;;;;;1.10;92.50;;;;;;4989315;28;20666;-79
2023/02/07 06:29:14;;;;;;;;;;;1.00;92.50;;;;;;5000805;28;19926;-79
2023/02/07 06:31:39;;;;;;;;;;;1.00;92.70;;;;;;4992623;28;20397;-80
2023/02/07 06:34:05;;;;;;;;;;;1.10;92.50;;;;;;4997813;28;19914;-80
2023/02/07 06:36:31;;;;;;;;;;;1.10;92.50;;;;;;5000983;28;20270;-78
2023/02/07 06:38:56;;;;;;;;;;;1.20;92.20;;;;;;4995619;28;19936;-81
2023/02/07 06:41:22;;;;;;;;;;;1.20;92.20;;;;;;4998096;28;19960;-78
2023/02/07 06:43:47;;;;;;;;;;;1.30;91.90;;;;;;4992582;28;19940;-78
2023/02/07 06:46:13;;;;;;;;;;;1.10;92.80;;;;;;4998810;28;19910;-79
2023/02/07 06:48:39;;;;;;;;;;;1.20;92.40;;;;;;5001714;28;20917;-80
2023/02/07 06:51:05;;;;;;;;;;;1.30;91.80;;;;;;4993668;28;19964;-79
2023/02/07 06:53:30;;;;;;;;;;;1.20;92.30;;;;;;4990473;28;19953;-78
2023/02/07 06:55:56;;;;;;;;;;;1.20;92.00;;;;;;4983418;28;19910;-80
2023/02/07 06:58:21;;;;;;;;;;;1.30;91.80;;;;;;4996071;28;19953;-80
2023/02/07 07:00:47;;;;;;;;;;;1.30;92.00;;;;;;4995844;28;19922;-79
2023/02/07 07:03:13;;;;;;;;;;;1.30;91.90;;;;;;4968691;28;19921;-81
2023/02/07 07:05:39;;;;;;;;;;;1.40;91.80;;;;;;4994545;28;20440;-82
2023/02/07 07:08:05;;;;;;;;;;;1.40;91.90;;;;;;4999299;28;20019;-79
2023/02/07 07:10:31;;;;;;;;;;;1.40;92.00;;;;;;4995331;28;19936;-78
2023/02/07 07:12:56;;;;;;;;;;;1.40;91.70;;;;;;4997905;28;19916;-80
2023/02/07 07:15:22;;;;;;;;;;;1.40;91.60;;;;;;4995906;28;20089;-79
2023/02/07 07:17:47;;;;;;;;;;;1.40;92.10;;;;;;4999225;28;19913;-82
2023/02/07 07:20:13;;;;;;;;;;;1.50;91.80;;;;;;5000169;28;19996;-79
2023/02/07 07:22:38;;;;;;;;;;;1.60;91.50;;;;;;5001745;28;20586;-79
2023/02/07 07:25:04;;;;;;;;;;;1.50;91.40;;;;;;5000698;28;19913;-79
2023/02/07 07:27:30;;;;;;;;;;;1.60;91.30;;;;;;4999574;28;19921;-79
2023/02/07 07:29:55;;;;;;;;;;;1.40;91.80;;;;;;4996941;28;19937;-79
2023/02/07 07:32:21;;;;;;;;;;;1.50;91.30;;;;;;4990491;28;19992;-79
2023/02/07 07:34:48;;;;;;;;;;;1.50;91.30;;;;;;4995817;28;20765;-79
2023/02/07 07:37:14;;;;;;;;;;;1.40;91.70;;;;;;4985079;28;20004;-79
2023/02/07 07:39:40;;;;;;;;;;;1.40;91.80;;;;;;4999516;28;19913;-80
2023/02/07 07:42:05;;;;;;;;;;;1.30;92.00;;;;;;5002430;28;20432;-79
2023/02/07 07:44:31;;;;;;;;;;;1.30;91.80;;;;;;4997950;28;20032;-81
2023/02/07 07:46:57;;;;;;;;;;;1.40;91.40;;;;;;4998302;28;20383;-81
2023/02/07 07:49:22;;;;;;;;;;;1.30;91.80;;;;;;4998927;28;19925;-80
2023/02/07 07:51:48;;;;;;;;;;;1.30;91.90;;;;;;4995278;28;19913;-79
2023/02/07 07:54:14;;;;;;;;;;;1.50;91.50;;;;;;4998290;28;19913;-83
2023/02/07 07:56:40;;;;;;;;;;;1.60;91.40;;;;;;4990838;28;19914;-86
2023/02/07 07:59:06;;;;;;;;;;;1.70;91.00;;;;;;5008060;28;19913;-85
2023/02/07 08:01:31;;;;;;;;;;;1.90;90.40;;;;;;5004548;28;20450;-84
2023/02/07 08:03:57;;;;;;;;;;;1.90;90.50;;;;;;4998719;28;19920;-84
2023/02/07 08:06:23;;;;;;;;;;;1.90;90.90;;;;;;5001905;28;19909;-82
2023/02/07 08:08:48;;;;;;;;;;;2.00;90.20;;;;;;5004154;28;20004;-82
2023/02/07 08:11:14;;;;;;;;;;;1.90;90.70;;;;;;4996164;28;20676;-84
2023/02/07 08:13:39;;;;;;;;;;;2.10;90.10;;;;;;5005586;28;19975;-86
2023/02/07 08:16:07;;;;;;;;;;;2.10;89.90;;;;;;5003043;28;20658;-84
2023/02/07 08:18:33;;;;;;;;;;;2.10;90.40;;;;;;5006920;28;19921;-85
2023/02/07 08:20:58;;;;;;;;;;;2.10;90.30;;;;;;4992714;28;19913;-84
2023/02/07 08:23:24;;;;;;;;;;;2.10;90.30;;;;;;5003965;28;19942;-86
2023/02/07 08:25:50;;;;;;;;;;;2.20;90.20;;;;;;5002452;28;19916;-83
2023/02/07 08:28:16;;;;;;;;;;;2.20;90.30;;;;;;4992426;28;20635;-86
2023/02/07 08:30:42;;;;;;;;;;;2.20;90.10;;;;;;4983732;28;19948;-81
2023/02/07 08:33:07;;;;;;;;;;;2.30;90.10;;;;;;4977074;28;19913;-82
2023/02/07 08:35:33;;;;;;;;;;;2.30;90.30;;;;;;4990643;28;19917;-82
2023/02/07 08:37:59;;;;;;;;;;;2.30;90.20;;;;;;5000879;28;19964;-89
2023/02/07 08:40:25;;;;;;;;;;;2.30;90.40;;;;;;4985448;28;20432;-82
2023/02/07 08:42:51;;;;;;;;;;;2.40;90.10;;;;;;5003047;28;19924;-82
2023/02/07 08:45:17;;;;;;;;;;;2.30;90.70;;;;;;4999154;28;19914;-82
2023/02/07 08:47:43;;;;;;;;;;;2.40;90.60;;;;;;5003620;28;19928;-82
2023/02/07 08:50:09;;;;;;;;;;;2.40;90.50;;;;;;4999859;28;19924;-82
2023/02/07 08:52:35;;;;;;;;;;;2.30;91.00;;;;;;4996470;28;19925;-83
2023/02/07 08:55:02;;;;;;;;;;;2.50;90.20;;;;;;5001843;28;19917;-84
2023/02/07 08:57:28;;;;;;;;;;;2.60;89.70;;;;;;5000843;28;19913;-84
2023/02/07 08:59:54;;;;;;;;;;;2.70;89.70;;;;;;5000685;28;19917;-83
2023/02/07 09:02:20;;;;;;;;;;;2.60;90.30;;;;;;4986117;28;19917;-83
2023/02/07 09:04:46;;;;;;;;;;;2.80;89.30;;;;;;5002021;28;19910;-87
2023/02/07 09:07:12;;;;;;;;;;;2.80;90.20;;;;;;5001765;28;19913;-86
2023/02/07 09:09:38;;;;;;;;;;;2.80;90.00;;;;;;5002528;28;19913;-87
2023/02/07 09:12:04;;;;;;;;;;;2.90;90.10;;;;;;4998176;28;19924;-87
2023/02/07 09:14:30;;;;;;;;;;;2.90;90.10;;;;;;4984302;28;19913;-85
2023/02/07 09:16:55;;;;;;;;;;;3.00;90.20;;;;;;5006601;28;19917;-88
2023/02/07 09:19:21;;;;;;;;;;;3.10;90.30;;;;;;5001102;28;19913;-83
2023/02/07 09:21:47;;;;;;;;;;;3.10;90.30;;;;;;5001154;28;19920;-84
2023/02/07 09:24:12;;;;;;;;;;;3.10;90.50;;;;;;4998922;28;19926;-86
2023/02/07 09:26:38;;;;;;;;;;;3.20;90.80;;;;;;4994335;28;19918;-84
2023/02/07 09:29:05;;;;;;;;;;;3.30;90.90;;;;;;4988652;28;20470;-85
2023/02/07 09:31:31;;;;;;;;;;;3.40;91.20;;;;;;4995047;28;19917;-86
2023/02/07 09:33:56;;;;;;;;;;;3.40;91.50;;;;;;4991569;28;19913;-84
2023/02/07 09:36:27;;;;;;;;;;;3.50;91.70;;;;;;4996102;28;20438;-86
2023/02/07 09:38:53;;;;;;;;;;;3.50;91.70;;;;;;4998937;28;19945;-84
2023/02/07 09:41:25;;;;;;;;;;;3.60;92.10;;;;;;5000124;28;20488;-85
2023/02/07 09:43:53;;;;;;;;;;;3.70;92.20;;;;;;4978624;28;19935;-86
2023/02/07 09:46:30;;;;;;;;;;;3.70;92.50;;;;;;4990088;28;19913;-85
2023/02/07 09:49:03;;;;;;;;;;;3.80;93.00;;;;;;4999671;28;19922;-85
2023/02/07 09:51:29;;;;;;;;;;;3.80;93.20;;;;;;4995555;28;20000;-85
2023/02/07 09:53:59;;;;;;;;;;;3.90;93.40;;;;;;4998935;28;19917;-86
2023/02/07 09:56:26;;;;;;;;;;;3.90;93.90;;;;;;5000446;28;19917;-86
2023/02/07 09:58:59;;;;;;;;;;;4.10;94.30;;;;;;5000835;28;19913;-85
2023/02/07 10:01:31;;;;;;;;;;;4.20;95.00;;;;;;4997182;28;19925;-87
2023/02/07 10:04:05;;;;;;;;;;;4.30;95.50;;;;;;4998958;28;19913;-85
2023/02/07 10:06:31;;;;;;;;;;;4.60;96.10;;;;;;5002130;28;19913;-86
2023/02/07 10:08:59;;;;;;;;;;;4.80;95.40;;;;;;4979783;28;19921;-83
2023/02/07 10:11:33;;;;;;;;;;;4.80;95.60;;;;;;5002085;28;19917;-82
2023/02/07 10:14:10;;;;;;;;;;;4.60;95.70;;;;;;5004207;28;19913;-83
2023/02/07 10:16:49;;;;;;;;;;;4.50;96.80;;;;;;4995593;28;19917;-85
2023/02/07 10:19:21;;;;;;;;;;;4.60;97.20;;;;;;4994427;28;19953;-86
2023/02/07 10:21:47;;;;;;;;;;;4.60;97.90;;;;;;4998973;28;19917;-82
2023/02/07 10:24:15;;;;;;;;;;;4.70;97.90;;;;;;4997077;28;19975;-81
2023/02/07 10:26:44;;;;;;;;;;;4.60;97.90;;;;;;4998618;28;20004;-77
2023/02/07 10:29:19;;;;;;;;;;;4.50;98.60;;;;;;4999301;28;20013;-79
2023/02/07 10:31:49;;;;;;;;;;;4.50;99.40;;;;;;4980787;28;20648;-76
2023/02/07 10:34:21;;;;;;;;;;;4.50;99.00;;;;;;4996151;28;20027;-80
2023/02/07 10:36:48;;;;;;;;;;;4.50;99.70;;;;;;4999434;28;19913;-84
2023/02/07 10:39:13;;;;;;;;;;;4.60;99.20;;;;;;4998501;28;19921;-81
2023/02/07 10:41:43;;;;;;;;;;;5.00;98.80;;;;;;5002105;28;19996;-80
2023/02/07 10:44:10;;;;;;;;;;;5.40;97.70;;;;;;5001468;28;19920;-82
2023/02/07 10:46:36;;;;;;;;;;;5.50;97.30;;;;;;5002604;28;20567;-87
2023/02/07 10:49:02;;;;;;;;;;;5.60;96.90;;;;;;4994298;28;19917;-81
2023/02/07 10:51:30;;;;;;;;;;;5.70;96.20;;;;;;4998368;28;20293;-80
2023/02/07 10:54:09;;;;;;;;;;;5.80;95.70;;;;;;4999444;28;19909;-87
2023/02/07 10:56:39;;;;;;;;;;;6.30;94.70;;;;;;5000544;28;19920;-84
2023/02/07 10:59:05;;;;;;;;;;;5.60;94.90;;;;;;4998729;28;20408;-80
2023/02/07 11:01:32;;;;;;;;;;;5.30;95.80;;;;;;5000484;28;20087;-84
2023/02/07 11:03:57;;;;;;;;;;;5.20;95.80;;;;;;4996065;28;19920;-85
2023/02/07 11:06:31;;;;;;;;;;;5.40;95.50;;;;;;5001110;28;19910;-79
2023/02/07 11:09:11;;;;;;;;;;;5.70;95.00;;;;;;5000312;28;19928;-85
2023/02/07 11:11:39;;;;;;;;;;;6.20;93.60;;;;;;4998676;28;19960;-86
2023/02/07 11:14:06;;;;;;;;;;;5.80;94.40;;;;;;5005598;28;19941;-84
2023/02/07 11:16:31;;;;;;;;;;;5.80;93.80;;;;;;5003435;28;19913;-80
2023/02/07 11:19:00;;;;;;;;;;;5.90;93.80;;;;;;5005165;28;19920;-81
2023/02/07 11:21:31;;;;;;;;;;;5.80;93.10;;;;;;5001926;28;19961;-80
2023/02/07 11:24:03;;;;;;;;;;;5.90;93.00;;;;;;5003859;28;19976;-81
2023/02/07 11:26:30;;;;;;;;;;;6.00;92.90;;;;;;5001153;28;19940;-80
2023/02/07 11:29:04;;;;;;;;;;;6.00;92.40;;;;;;5005595;28;19924;-81
2023/02/07 11:31:31;;;;;;;;;;;5.90;92.70;;;;;;5000818;28;20049;-78
2023/02/07 11:34:26;;;;;;;;;;;6.10;92.30;;;;;;5002085;28;19913;-78
2023/02/07 11:36:52;;;;;;;;;;;6.20;91.20;;;;;;4995242;28;19920;-75
2023/02/07 11:39:19;;;;;;;;;;;6.10;91.00;;;;;;5001604;28;19925;-77
2023/02/07 11:41:58;;;;;;;;;;;6.10;90.40;;;;;;4995912;28;19980;-78
2023/02/07 11:44:24;;;;;;;;;;;6.20;90.80;;;;;;4999448;28;19914;-78
2023/02/07 11:46:52;;;;;;;;;;;6.30;90.20;;;;;;5001974;28;20456;-77
2023/02/07 11:49:38;;;;;;;;;;;6.30;89.90;;;;;;5005728;28;20265;-77
2023/02/07 11:52:04;;;;;;;;;;;6.30;89.90;;;;;;5002864;28;19949;-78
2023/02/07 11:54:30;;;;;;;;;;;6.40;90.50;;;;;;5003135;28;20619;-79
2023/02/07 11:57:00;;;;;;;;;;;6.40;90.60;;;;;;5003356;28;19917;-79
2023/02/07 11:59:27;;;;;;;;;;;6.60;90.10;;;;;;5002463;28;19917;-80
2023/02/07 12:01:57;;;;;;;;;;;6.60;88.20;;;;;;5000044;28;19976;-77
2023/02/07 12:04:27;;;;;;;;;;;6.50;87.20;;;;;;5004099;28;19917;-79
2023/02/07 12:07:01;;;;;;;;;;;6.40;86.70;;;;;;4983011;28;20443;-82
2023/02/07 12:09:28;;;;;;;;;;;6.60;85.10;;;;;;5001378;28;19925;-79
2023/02/07 12:11:55;;;;;;;;;;;6.70;85.00;;;;;;5000875;28;19948;-79
2023/02/07 12:14:24;;;;;;;;;;;6.70;84.50;;;;;;5003959;28;19913;-79
2023/02/07 12:16:52;;;;;;;;;;;6.70;85.50;;;;;;5000755;28;19917;-79
2023/02/07 12:19:21;;;;;;;;;;;6.80;86.30;;;;;;4986174;28;19947;-77
2023/02/07 12:21:55;;;;;;;;;;;6.90;85.70;;;;;;5004903;28;19914;-78
2023/02/07 12:24:33;;;;;;;;;;;6.90;83.50;;;;;;4994454;28;20059;-78
2023/02/07 12:27:01;;;;;;;;;;;7.00;83.20;;;;;;4992926;28;19906;-79
2023/02/07 12:29:45;;;;;;;;;;;7.00;83.20;;;;;;4995961;28;19936;-79
2023/02/07 12:32:23;;;;;;;;;;;7.10;81.70;;;;;;4994838;28;19916;-79
2023/02/07 12:34:56;;;;;;;;;;;7.10;81.70;;;;;;4990764;28;20436;-78
2023/02/07 12:37:32;;;;;;;;;;;7.10;80.10;;;;;;4999544;28;19944;-81
2023/02/07 12:40:07;;;;;;;;;;;7.00;80.10;;;;;;4994407;28;19914;-78
2023/02/07 12:42:41;;;;;;;;;;;7.10;79.60;;;;;;4998071;28;19910;-81
2023/02/07 12:45:17;;;;;;;;;;;7.20;80.30;;;;;;4990327;28;19925;-79
2023/02/07 12:47:47;;;;;;;;;;;7.20;80.40;;;;;;4989469;28;19918;-79
2023/02/07 12:50:28;;;;;;;;;;;7.20;82.70;;;;;;4993054;28;19913;-78
2023/02/07 12:52:56;;;;;;;;;;;7.10;80.50;;;;;;4995868;28;19920;-78
2023/02/07 12:55:33;;;;;;;;;;;7.40;79.70;;;;;;5000408;28;20032;-82
2023/02/07 12:58:19;;;;;;;;;;;7.30;79.30;;;;;;4997421;28;20564;-78
2023/02/07 13:00:51;;;;;;;;;;;7.40;77.50;;;;;;4993696;28;19925;-78
2023/02/07 13:03:35;;;;;;;;;;;7.40;78.10;;;;;;5004246;28;19920;-80
2023/02/07 13:06:17;;;;;;;;;;;7.40;78.80;;;;;;5003511;28;19935;-79
2023/02/07 13:09:05;;;;;;;;;;;7.50;77.70;;;;;;4997870;28;19925;-77
2023/02/07 13:11:53;;;;;;;;;;;7.50;78.10;;;;;;4998356;28;20296;-78
2023/02/07 13:14:18;;;;;;;;;;;7.40;78.30;;;;;;4988410;28;19909;-78
2023/02/07 13:16:47;;;;;;;;;;;7.40;77.80;;;;;;4998102;28;19916;-77
2023/02/07 13:19:15;;;;;;;;;;;7.60;76.70;;;;;;5001084;28;20000;-79
2023/02/07 13:21:50;;;;;;;;;;;7.60;75.90;;;;;;5000419;28;19913;-79
2023/02/07 13:24:18;;;;;;;;;;;7.60;75.30;;;;;;5000209;28;19976;-81
2023/02/07 13:26:48;;;;;;;;;;;7.40;76.00;;;;;;5002555;28;19905;-81
2023/02/07 13:29:14;;;;;;;;;;;7.70;75.40;;;;;;5002057;28;19940;-77
2023/02/07 13:31:41;;;;;;;;;;;7.60;75.50;;;;;;5001335;28;19949;-80
2023/02/07 13:34:12;;;;;;;;;;;7.60;74.70;;;;;;5001275;28;19944;-79
2023/02/07 13:36:41;;;;;;;;;;;7.60;74.70;;;;;;5001189;28;19963;-79
2023/02/07 13:39:19;;;;;;;;;;;7.80;74.10;;;;;;4998269;28;20000;-79
2023/02/07 13:41:55;;;;;;;;;;;7.70;73.80;;;;;;4993941;28;20172;-77
2023/02/07 13:44:23;;;;;;;;;;;7.60;73.40;;;;;;4986834;28;19920;-76
2023/02/07 13:46:55;;;;;;;;;;;7.70;72.10;;;;;;4986373;28;19921;-79
2023/02/07 13:49:27;;;;;;;;;;;7.70;71.60;;;;;;4989189;28;20653;-77
2023/02/07 13:51:53;;;;;;;;;;;7.80;70.00;;;;;;4997162;28;19913;-77
2023/02/07 13:54:29;;;;;;;;;;;7.70;70.30;;;;;;5000413;28;19913;-79
2023/02/07 13:59:41;;;;;;;;;;;7.80;69.70;;;;;;5003596;28;19912;-76
2023/02/07 14:02:20;;;;;;;;;;;7.70;70.00;;;;;;4993670;28;19928;-77
2023/02/07 14:04:54;;;;;;;;;;;7.60;69.60;;;;;;4996744;28;19915;-79
2023/02/07 14:07:32;;;;;;;;;;;7.50;70.10;;;;;;4997693;28;19920;-78
2023/02/07 14:09:58;;;;;;;;;;;7.50;70.40;;;;;;5003155;28;20381;-76
2023/02/07 14:12:25;;;;;;;;;;;7.50;70.00;;;;;;5003270;28;19916;-75
2023/02/07 14:14:51;;;;;;;;;;;7.80;70.70;;;;;;5003043;28;19921;-77
2023/02/07 14:17:26;;;;;;;;;;;7.90;67.80;;;;;;5002104;28;19921;-76
2023/02/07 14:19:55;;;;;;;;;;;7.90;68.00;;;;;;4984445;28;19964;-78
2023/02/07 14:22:23;;;;;;;;;;;7.80;68.20;;;;;;4994939;28;20013;-79
2023/02/07 14:24:58;;;;;;;;;;;7.70;68.40;;;;;;4996836;28;19936;-79
2023/02/07 14:27:26;;;;;;;;;;;7.70;68.70;;;;;;4993989;28;20000;-78
2023/02/07 14:29:55;;;;;;;;;;;7.90;67.30;;;;;;5001180;28;20350;-80
2023/02/07 14:32:25;;;;;;;;;;;7.80;67.60;;;;;;4997508;28;19917;-79
2023/02/07 14:35:10;;;;;;;;;;;7.90;66.90;;;;;;5002201;28;19913;-77
2023/02/07 14:37:37;;;;;;;;;;;7.80;66.80;;;;;;4978715;28;20359;-80
2023/02/07 14:40:07;;;;;;;;;;;7.70;67.50;;;;;;5000690;28;19913;-77
2023/02/07 14:42:33;;;;;;;;;;;7.70;68.90;;;;;;4999262;28;19914;-79